Time;durP1;ratioP1;P1;durP2;ratioP2;P2;SDS_P1;SDS_P2;PMS_P1;PMS_P2;Temp;Humidity;BMP_temperature;BMP_pressure;BME280_temperature;BME280_humidity;BME280_pressure;Samples;Min_cycle;Max_cycle;Signal;HPM_P1;HPM_P2
2021/03/10 00:02:47;;;;;;;13.53;5.92;;;;;;;-3.49;63.62;100981.12;1771713;79;21197;-75
2021/03/10 00:05:52;;;;;;;11.15;5.80;;;;;;;-3.43;63.17;100984.88;1763448;81;21181;-75
2021/03/10 00:09:01;;;;;;;12.82;6.45;;;;;;;-3.39;62.82;100988.67;1785316;80;21280;-75
2021/03/10 00:12:07;;;;;;;12.45;6.65;;;;;;;-3.36;62.30;100981.83;1785253;79;21296;-75
2021/03/10 00:15:14;;;;;;;9.58;5.33;;;;;;;-3.37;62.39;100981.91;1785292;80;21181;-75
2021/03/10 00:18:18;;;;;;;7.75;4.50;;;;;;;-3.39;62.51;100976.64;1785249;79;21335;-75
2021/03/10 00:21:24;;;;;;;19.67;4.35;;;;;;;-3.41;61.93;100969.61;1785244;79;21300;-75
2021/03/10 00:24:29;;;;;;;9.00;4.40;;;;;;;-3.41;61.80;100972.28;1785278;80;21778;-75
2021/03/10 00:27:35;;;;;;;8.33;4.97;;;;;;;-3.41;61.94;100974.48;1784536;79;21288;-75
2021/03/10 00:30:40;;;;;;;9.73;4.83;;;;;;;-3.38;62.23;100971.67;1785265;80;21129;-75
2021/03/10 00:33:46;;;;;;;7.83;4.45;;;;;;;-3.36;62.63;100973.80;1785256;80;21264;-75
2021/03/10 00:36:53;;;;;;;6.83;4.05;;;;;;;-3.33;62.59;100978.63;1783773;79;21173;-75
2021/03/10 00:39:58;;;;;;;8.10;4.70;;;;;;;-3.33;62.72;100980.83;1785234;80;21193;-75
2021/03/10 00:43:03;;;;;;;10.38;4.80;;;;;;;-3.37;61.14;100976.08;1785196;79;21283;-75
2021/03/10 00:46:09;;;;;;;12.10;6.20;;;;;;;-3.37;60.50;100975.22;1785098;80;21264;-75
2021/03/10 00:49:15;;;;;;;18.35;8.48;;;;;;;-3.37;60.01;100978.75;1785249;80;21272;-75
2021/03/10 00:52:20;;;;;;;16.77;8.20;;;;;;;-3.32;59.71;100984.37;1785258;79;21276;-75
2021/03/10 00:55:18;;;;;;;14.85;8.38;;;;;;;-3.28;59.47;100981.48;1785503;80;21157;-75
2021/03/10 00:58:25;;;;;;;7.57;4.87;;;;;;;-3.24;59.44;100980.39;1784427;79;21711;-75
2021/03/10 01:01:30;;;;;;;7.75;4.40;;;;;;;-3.21;59.46;100984.24;1785355;79;21268;-75
2021/03/10 01:04:36;;;;;;;7.37;4.83;;;;;;;-3.18;59.66;100988.59;1785366;80;21268;-75
2021/03/10 01:07:41;;;;;;;13.50;5.28;;;;;;;-3.16;60.17;100980.88;1783556;79;21209;-75
2021/03/10 01:10:47;;;;;;;5.22;4.05;;;;;;;-3.12;60.37;100982.47;1771983;81;21126;-75
2021/03/10 01:13:53;;;;;;;8.83;4.95;;;;;;;-3.11;60.08;100982.86;1771842;81;21295;-75
2021/03/10 01:16:59;;;;;;;7.67;4.75;;;;;;;-3.11;60.02;100988.69;1771868;79;21293;-75
2021/03/10 01:20:03;;;;;;;8.83;4.22;;;;;;;-3.14;59.81;100983.50;1771917;81;21268;-75
2021/03/10 01:23:09;;;;;;;12.03;4.50;;;;;;;-3.18;59.90;100985.45;1771864;79;21687;-75
2021/03/10 01:26:14;;;;;;;12.18;5.35;;;;;;;-3.15;59.40;100985.79;1771878;81;21260;-75
2021/03/10 01:29:20;;;;;;;7.22;4.92;;;;;;;-3.11;58.95;100985.53;1771900;81;21332;-76
2021/03/10 01:32:26;;;;;;;12.37;4.85;;;;;;;-3.10;58.14;100991.31;1771799;79;21292;-75
2021/03/10 01:35:32;;;;;;;8.43;5.83;;;;;;;-3.11;58.01;100994.04;1771937;81;21819;-75
2021/03/10 01:38:37;;;;;;;11.68;4.60;;;;;;;-3.08;57.76;100993.91;1771061;79;21288;-76
2021/03/10 01:41:44;;;;;;;11.00;5.35;;;;;;;-3.05;57.15;100992.44;1771807;79;21597;-75
2021/03/10 01:44:49;;;;;;;9.05;4.60;;;;;;;-3.02;56.80;100992.74;1771747;81;21276;-75
2021/03/10 01:47:54;;;;;;;10.85;5.12;;;;;;;-2.99;56.60;100993.47;1771842;79;21205;-75
2021/03/10 01:50:58;;;;;;;8.03;4.42;;;;;;;-2.95;56.64;100994.20;1772040;81;21181;-75
2021/03/10 01:54:03;;;;;;;11.57;5.00;;;;;;;-2.95;56.54;100999.55;1771896;81;21343;-75
2021/03/10 01:57:10;;;;;;;7.70;5.53;;;;;;;-3.03;56.85;101006.59;1771860;79;21288;-75
2021/03/10 02:00:16;;;;;;;15.20;5.70;;;;;;;-3.16;57.27;101001.42;1771884;81;21272;-75
2021/03/10 02:03:21;;;;;;;10.53;5.20;;;;;;;-3.29;57.94;100997.14;1771824;79;21303;-75
2021/03/10 02:06:50;;;;;;;10.55;5.90;;;;;;;-3.32;58.49;101004.44;1771836;79;21212;-75
2021/03/10 02:10:32;;;;;;;11.03;5.77;;;;;;;-3.36;58.82;101004.56;1779502;80;21177;-75
2021/03/10 02:13:57;;;;;;;9.63;5.22;;;;;;;-3.40;58.88;101001.62;1785564;79;21296;-75
2021/03/10 02:17:04;;;;;;;13.88;6.25;;;;;;;-3.44;58.91;101013.88;1770627;79;21715;-75
2021/03/10 02:20:14;;;;;;;15.18;4.83;;;;;;;-3.52;58.99;101010.70;1785629;80;21196;-75
2021/03/10 02:23:40;;;;;;;9.33;5.25;;;;;;;-3.59;58.81;101012.77;1785593;79;21509;-75
2021/03/10 02:27:10;;;;;;;7.95;5.10;;;;;;;-3.63;58.01;101009.83;1785599;79;21188;-75
2021/03/10 02:30:18;;;;;;;;;;;;;;;-3.66;57.25;101009.98;1788169;80;21125;-75
2021/03/10 02:33:27;;;;;;;8.55;5.00;;;;;;;-3.76;57.24;101010.00;1785542;79;20197;-75
2021/03/10 02:36:32;;;;;;;8.10;4.25;;;;;;;-3.80;57.37;101011.08;1785523;79;21133;-75
2021/03/10 02:39:37;;;;;;;8.60;4.72;;;;;;;-3.80;57.32;101010.60;1784682;80;21327;-75
2021/03/10 02:42:44;;;;;;;6.55;4.12;;;;;;;-3.76;57.29;101012.20;1785550;79;21164;-75
2021/03/10 02:45:48;;;;;;;6.55;4.40;;;;;;;-3.75;56.95;101007.25;1785605;80;21753;-75
2021/03/10 02:48:48;;;;;;;10.30;5.45;;;;;;;-3.81;57.09;101009.31;1785663;80;21288;-75
2021/03/10 02:51:53;;;;;;;11.78;5.05;;;;;;;-3.83;57.28;101011.20;1785582;79;21304;-75
2021/03/10 02:54:59;;;;;;;12.03;5.08;;;;;;;-3.81;57.17;101006.20;1785566;80;21319;-75
2021/03/10 02:58:04;;;;;;;8.75;5.22;;;;;;;-3.75;57.06;101011.27;1785547;79;21188;-75
2021/03/10 03:01:10;;;;;;;10.05;4.70;;;;;;;-3.69;56.52;101016.80;1785542;80;21850;-75
2021/03/10 03:04:15;;;;;;;9.30;4.35;;;;;;;-3.66;55.00;101018.02;1785614;80;21168;-75
2021/03/10 03:07:20;;;;;;;8.78;4.33;;;;;;;-3.65;54.40;101022.41;1785514;79;21307;-75
2021/03/10 03:10:31;;;;;;;20.80;9.75;;;;;;;-3.64;53.91;101026.81;1779395;80;21822;-75
2021/03/10 03:13:35;;;;;;;8.85;4.90;;;;;;;-3.63;54.47;101029.41;1771899;79;22423;-75
2021/03/10 03:16:41;;;;;;;9.90;5.37;;;;;;;-3.65;55.05;101023.75;1771715;79;21189;-75
2021/03/10 03:19:46;;;;;;;8.55;4.55;;;;;;;-3.65;55.03;101028.62;1771799;81;21253;-75
2021/03/10 03:22:55;;;;;;;23.57;6.25;;;;;;;-3.63;54.96;101033.89;1771732;79;21284;-75
2021/03/10 03:26:01;;;;;;;8.08;5.53;;;;;;;-3.64;56.03;101024.14;1771771;81;21292;-75
2021/03/10 03:29:08;;;;;;;11.90;5.80;;;;;;;-3.75;57.08;101019.75;1771862;81;21185;-75
2021/03/10 03:32:14;;;;;;;8.98;4.60;;;;;;;-3.88;57.24;101020.28;1771822;79;21303;-75
2021/03/10 03:35:22;;;;;;;15.00;6.78;;;;;;;-3.88;57.01;101025.62;1771861;81;21847;-75
2021/03/10 03:38:31;;;;;;;12.73;5.83;;;;;;;-3.84;57.15;101023.70;1763575;80;21754;-75
2021/03/10 03:41:36;;;;;;;;;;;;;;;-3.84;56.92;101024.17;1774445;79;21775;-75
2021/03/10 03:44:41;;;;;;;12.60;5.45;;;;;;;-3.80;56.76;101027.11;1771946;81;20561;-75
2021/03/10 03:47:47;;;;;;;11.00;5.35;;;;;;;-3.81;56.54;101030.70;1771805;79;21296;-75
2021/03/10 03:50:54;;;;;;;11.83;5.65;;;;;;;-3.80;56.32;101024.44;1771819;81;21323;-75
2021/03/10 03:54:11;;;;;;;11.80;5.42;;;;;;;-3.79;56.21;101031.05;1771868;81;21324;-75
2021/03/10 03:57:17;;;;;;;9.05;5.83;;;;;;;-3.79;56.39;101025.70;1771831;79;21189;-75
2021/03/10 04:00:26;;;;;;;16.40;6.22;;;;;;;-3.78;56.69;101023.89;1771808;81;21260;-75
2021/03/10 04:03:29;;;;;;;16.50;5.50;;;;;;;-3.80;56.90;101028.45;1771762;79;21300;-75
2021/03/10 04:06:35;;;;;;;11.78;5.53;;;;;;;-3.81;57.19;101024.02;1771821;79;21142;-75
2021/03/10 04:09:41;;;;;;;13.50;6.00;;;;;;;-3.82;57.32;101035.17;1770025;81;21182;-75
2021/03/10 04:12:47;;;;;;;18.17;5.90;;;;;;;-3.83;57.38;101039.27;1770406;79;21196;-75
2021/03/10 04:15:53;;;;;;;13.25;6.78;;;;;;;-3.84;57.29;101038.88;1771731;81;21280;-75
2021/03/10 04:19:00;;;;;;;9.80;5.90;;;;;;;-3.85;57.28;101040.68;1769369;81;21145;-75
2021/03/10 04:22:05;;;;;;;10.28;6.28;;;;;;;-3.84;57.24;101038.40;1771429;81;21837;-75
2021/03/10 04:25:13;;;;;;;9.73;5.67;;;;;;;-3.82;57.21;101041.00;1771805;81;21375;-76
2021/03/10 04:28:19;;;;;;;12.88;6.10;;;;;;;-3.80;57.27;101042.68;1771876;81;21842;-75
2021/03/10 04:31:24;;;;;;;12.15;5.58;;;;;;;-3.77;57.36;101049.68;1741308;81;21304;-75
2021/03/10 04:34:30;;;;;;;9.75;5.85;;;;;;;-3.76;57.32;101055.45;1741490;82;21817;-75
2021/03/10 04:37:35;;;;;;;12.23;5.17;;;;;;;-3.78;57.22;101055.97;1741371;81;21845;-75
2021/03/10 04:40:40;;;;;;;11.78;5.62;;;;;;;-3.83;57.40;101058.84;1766720;81;21173;-75
2021/03/10 04:43:46;;;;;;;10.05;5.42;;;;;;;-3.78;57.44;101059.98;1771969;81;21264;-75
2021/03/10 04:46:51;;;;;;;10.95;6.45;;;;;;;-3.75;57.36;101059.39;1771801;81;21304;-75
2021/03/10 04:49:57;;;;;;;13.18;6.62;;;;;;;-3.72;57.47;101064.58;1756112;81;21282;-75
2021/03/10 04:53:02;;;;;;;9.28;6.25;;;;;;;-3.66;57.34;101061.66;1739725;82;21351;-75
2021/03/10 04:56:07;;;;;;;10.72;5.47;;;;;;;-3.60;56.85;101072.08;1739545;82;21336;-75
2021/03/10 04:59:13;;;;;;;10.55;5.15;;;;;;;-3.52;56.49;101072.22;1746345;81;21130;-75
2021/03/10 05:02:18;;;;;;;18.00;5.40;;;;;;;-3.47;56.35;101076.42;1739851;81;21157;-75
2021/03/10 05:05:23;;;;;;;12.88;6.50;;;;;;;-3.46;56.15;101072.80;1739716;82;21312;-75
2021/03/10 05:08:30;;;;;;;10.28;5.35;;;;;;;-3.37;56.18;101072.39;1739744;81;21763;-75
2021/03/10 05:11:35;;;;;;;13.48;4.97;;;;;;;-3.24;56.35;101075.86;1740316;81;21165;-75
2021/03/10 05:14:41;;;;;;;9.70;5.70;;;;;;;-3.13;55.98;101075.75;1754250;82;21691;-75
2021/03/10 05:17:45;;;;;;;8.93;5.35;;;;;;;-3.05;55.25;101071.39;1774511;80;21291;-75
2021/03/10 05:20:51;;;;;;;10.43;6.92;;;;;;;-3.12;55.09;101078.81;1783487;80;21299;-80
2021/03/10 05:23:57;;;;;;;13.80;6.35;;;;;;;-3.18;54.91;101078.25;1779074;80;21816;-80
2021/03/10 05:27:03;;;;;;;11.73;6.28;;;;;;;-3.17;55.17;101079.98;1790695;79;21318;-79
2021/03/10 05:30:10;;;;;;;8.73;4.95;;;;;;;-3.10;54.67;101081.45;1775686;80;21820;-80
2021/03/10 05:33:16;;;;;;;11.68;5.80;;;;;;;-3.06;54.80;101080.34;1779833;80;21880;-80
2021/03/10 05:36:21;;;;;;;10.68;5.33;;;;;;;-3.06;54.00;101084.35;1781476;79;21762;-81
2021/03/10 05:39:28;;;;;;;13.32;5.62;;;;;;;-3.05;54.06;101078.56;1779441;80;21804;-81
2021/03/10 05:42:33;;;;;;;7.65;4.25;;;;;;;-2.99;53.36;101083.14;1741357;82;21148;-81
2021/03/10 05:45:40;;;;;;;9.25;4.62;;;;;;;-2.93;52.96;101092.69;1744622;80;21266;-79
2021/03/10 05:48:45;;;;;;;7.83;4.47;;;;;;;-2.98;52.16;101092.91;1727781;81;21367;-80
2021/03/10 05:51:52;;;;;;;9.00;4.83;;;;;;;-2.94;51.67;101102.53;1735994;81;21311;-80
2021/03/10 05:54:57;;;;;;;8.35;4.33;;;;;;;-2.89;50.95;101106.34;1731135;81;21222;-80
2021/03/10 05:58:02;;;;;;;9.68;6.30;;;;;;;-2.83;51.60;101108.72;1731771;81;22180;-80
2021/03/10 06:01:07;;;;;;;6.78;4.08;;;;;;;-2.78;50.66;101113.86;1728609;82;21819;-80
2021/03/10 06:04:14;;;;;;;6.55;4.12;;;;;;;-2.77;49.71;101119.17;1720026;82;21600;-80
2021/03/10 06:07:30;;;;;;;10.50;4.95;;;;;;;-2.78;48.59;101122.77;1723430;81;22159;-80
2021/03/10 06:10:52;;;;;;;7.47;4.50;;;;;;;-2.74;47.74;101125.70;1724501;81;21802;-81
2021/03/10 06:13:59;;;;;;;5.58;3.87;;;;;;;-2.70;48.32;101129.11;1709919;81;21684;-81
2021/03/10 06:17:13;;;;;;;6.80;3.30;;;;;;;-2.60;48.10;101130.41;1765294;79;21412;-76
2021/03/10 06:20:20;;;;;;;6.97;5.35;;;;;;;-2.47;46.99;101128.02;1726130;81;21294;-81
2021/03/10 06:23:25;;;;;;;5.67;3.20;;;;;;;-2.44;46.94;101141.28;1759701;79;21522;-77
2021/03/10 06:26:35;;;;;;;5.17;3.47;;;;;;;-2.42;46.21;101136.23;1763851;79;21287;-77
2021/03/10 06:29:40;;;;;;;4.92;2.85;;;;;;;-2.42;46.60;101137.58;1763431;79;21980;-81
2021/03/10 06:32:49;;;;;;;5.37;3.15;;;;;;;-2.34;46.19;101138.08;1722505;81;21837;-81
2021/03/10 06:35:54;;;;;;;4.87;2.60;;;;;;;-2.19;46.40;101144.50;1721421;81;21351;-81
2021/03/10 06:39:02;;;;;;;4.83;3.08;;;;;;;-2.18;45.83;101144.03;1768282;79;22153;-82
2021/03/10 06:42:09;;;;;;;5.45;2.67;;;;;;;-2.23;46.23;101146.06;1763156;79;21801;-79
2021/03/10 06:45:16;;;;;;;9.65;2.80;;;;;;;-2.22;45.06;101143.30;1754150;79;21209;-79
2021/03/10 06:48:29;;;;;;;5.00;2.87;;;;;;;-2.19;45.91;101142.30;1762410;79;21177;-84
2021/03/10 06:51:35;;;;;;;6.87;2.98;;;;;;;-2.10;45.38;101153.91;1758971;79;21171;-81
2021/03/10 06:54:41;;;;;;;5.28;3.60;;;;;;;-2.03;44.88;101153.99;1764136;79;21674;-80
2021/03/10 06:57:52;;;;;;;6.90;3.25;;;;;;;-1.94;44.62;101150.86;1764082;79;21811;-79
2021/03/10 07:01:08;;;;;;;7.50;3.30;;;;;;;-1.85;45.57;101149.53;1765695;79;21295;-81
2021/03/10 07:04:17;;;;;;;6.83;3.87;;;;;;;-1.75;45.14;101150.80;1768947;79;21285;-81
2021/03/10 07:07:23;;;;;;;7.30;3.87;;;;;;;-1.70;45.93;101154.12;1728866;81;21311;-80
2021/03/10 07:10:34;;;;;;;4.65;3.17;;;;;;;-1.75;45.68;101149.46;1725137;81;21216;-76
2021/03/10 07:13:41;;;;;;;7.62;3.35;;;;;;;-1.80;45.86;101158.22;1726313;81;21614;-76
2021/03/10 07:16:46;;;;;;;7.50;4.58;;;;;;;-1.82;46.63;101153.42;1765332;79;22301;-75
2021/03/10 07:19:52;;;;;;;10.70;5.83;;;;;;;-1.88;46.42;101147.89;1727447;81;21323;-74
2021/03/10 07:23:20;;;;;;;6.72;3.67;;;;;;;-1.86;46.37;101150.48;1762467;79;22104;-76
2021/03/10 07:26:25;;;;;;;4.95;3.30;;;;;;;-1.81;46.63;101144.42;1765608;79;21746;-76
2021/03/10 07:29:31;;;;;;;5.60;3.60;;;;;;;-1.84;45.50;101145.42;1763833;79;21172;-76
2021/03/10 07:32:36;;;;;;;4.12;3.25;;;;;;;-1.79;46.46;101155.92;1763626;79;22219;-77
2021/03/10 07:36:04;;;;;;;8.95;2.67;;;;;;;-1.70;45.90;101146.55;1763373;79;21180;-76
2021/03/10 07:39:12;;;;;;;5.47;3.10;;;;;;;-1.56;45.10;101149.40;1762691;79;21823;-77
2021/03/10 07:42:23;;;;;;;4.03;2.55;;;;;;;-1.53;44.93;101137.18;1765187;79;21279;-82
2021/03/10 07:45:50;;;;;;;5.35;3.20;;;;;;;-1.45;45.04;101141.68;1765574;79;21288;-83
2021/03/10 07:48:56;;;;;;;5.20;3.02;;;;;;;-1.27;44.74;101142.99;1723166;81;21330;-81
2021/03/10 07:52:19;;;;;;;8.48;3.00;;;;;;;-1.11;44.92;101142.59;1769251;79;21967;-77
2021/03/10 07:55:25;;;;;;;6.80;3.62;;;;;;;-0.97;44.31;101148.57;1765059;79;21233;-77
2021/03/10 07:58:37;;;;;;;6.95;3.62;;;;;;;-0.94;44.27;101138.98;1762115;79;21174;-77
2021/03/10 08:01:43;;;;;;;6.65;3.05;;;;;;;-1.04;44.90;101145.33;1767814;79;21737;-77
2021/03/10 08:04:49;;;;;;;35.15;30.88;;;;;;;-1.09;45.24;101141.55;1770257;79;21284;-78
2021/03/10 08:07:54;;;;;;;10.05;7.15;;;;;;;-1.18;42.77;101135.80;1752258;79;21300;-76
2021/03/10 08:11:00;;;;;;;8.93;7.25;;;;;;;-1.32;43.24;101139.20;1765955;79;21929;-77
2021/03/10 08:14:06;;;;;;;5.70;3.47;;;;;;;-1.36;44.24;101136.31;1733523;79;21287;-75
2021/03/10 08:17:14;;;;;;;4.58;2.60;;;;;;;-1.29;44.84;101143.08;1769538;79;21520;-79
2021/03/10 08:20:20;;;;;;;7.12;3.47;;;;;;;-1.20;44.38;101140.39;1770832;79;21240;-81
2021/03/10 08:23:25;;;;;;;5.25;3.08;;;;;;;-1.19;45.25;101149.70;1773064;79;21299;-81
2021/03/10 08:26:31;;;;;;;4.92;3.22;;;;;;;-1.17;44.34;101148.30;1773803;79;21304;-80
2021/03/10 08:29:36;;;;;;;8.75;3.55;;;;;;;-1.11;44.83;101139.91;1768493;79;21833;-80
2021/03/10 08:32:42;;;;;;;5.20;3.02;;;;;;;-0.93;44.46;101137.58;1771410;79;21697;-82
2021/03/10 08:35:55;;;;;;;10.95;8.83;;;;;;;-0.71;43.80;101145.80;1776186;79;21192;-80
2021/03/10 08:39:01;;;;;;;5.55;3.60;;;;;;;-0.61;42.19;101130.45;1775032;79;21847;-80
2021/03/10 08:42:06;;;;;;;8.20;6.17;;;;;;;-0.82;42.21;101140.54;1774130;79;21310;-81
2021/03/10 08:45:12;;;;;;;5.25;3.65;;;;;;;-0.88;42.68;101123.42;1772625;79;21952;-83
2021/03/10 08:48:20;;;;;;;12.93;10.40;;;;;;;-0.77;43.62;101130.89;1770718;79;21784;-80
2021/03/10 08:51:27;;;;;;;5.78;3.95;;;;;;;-0.67;43.39;101128.56;1777452;79;21287;-81
2021/03/10 08:54:33;;;;;;;10.68;2.87;;;;;;;-0.69;42.49;101127.80;1737294;79;21299;-80
2021/03/10 08:57:43;;;;;;;8.35;6.95;;;;;;;-0.58;42.64;101124.89;1775514;79;21276;-81
2021/03/10 09:00:48;;;;;;;7.97;6.37;;;;;;;-0.42;42.07;101126.27;1776575;79;21849;-80
2021/03/10 09:04:05;;;;;;;7.05;3.15;;;;;;;-0.37;43.03;101121.97;1775452;79;21291;-81
2021/03/10 09:07:10;;;;;;;5.90;4.40;;;;;;;-0.44;42.35;101126.80;1771189;79;21307;-81
2021/03/10 09:10:24;;;;;;;5.30;2.67;;;;;;;-0.57;42.30;101119.89;1767531;79;21172;-77
2021/03/10 09:13:40;;;;;;;9.05;6.15;;;;;;;-0.61;42.08;101127.77;1771932;79;21738;-84
2021/03/10 09:17:04;;;;;;;4.72;3.05;;;;;;;-0.66;41.06;101128.50;1765442;79;21311;-81
2021/03/10 09:20:15;;;;;;;9.55;5.50;;;;;;;-0.65;41.08;101132.05;1764514;79;21283;-77
2021/03/10 09:23:32;;;;;;;;;;;;;;;-0.68;40.65;101122.80;1766409;79;21154;-77
2021/03/10 09:26:44;;;;;;;5.62;3.00;;;;;;;-0.65;41.37;101119.96;1762848;79;20240;-76
2021/03/10 09:29:53;;;;;;;24.75;20.90;;;;;;;-0.75;41.57;101123.63;1764847;79;22186;-76
2021/03/10 09:32:58;;;;;;;5.58;3.42;;;;;;;-0.78;41.58;101126.00;1765142;79;21189;-74
2021/03/10 09:36:07;;;;;;;9.40;2.67;;;;;;;-0.80;42.49;101119.85;1764666;79;21157;-75
2021/03/10 09:39:14;;;;;;;6.83;3.22;;;;;;;-0.75;41.94;101116.91;1763595;79;21798;-79
2021/03/10 09:42:21;;;;;;;4.80;2.77;;;;;;;-0.61;42.76;101115.67;1755292;79;21344;-79
2021/03/10 09:45:33;;;;;;;4.78;2.70;;;;;;;-0.51;42.35;101120.05;1730175;81;21276;-80
2021/03/10 09:48:41;;;;;;;4.47;2.45;;;;;;;-0.49;41.84;101115.45;1766765;79;21189;-78
2021/03/10 09:51:56;;;;;;;4.72;2.85;;;;;;;-0.46;44.29;101113.08;1765977;79;22283;-76
2021/03/10 09:55:01;;;;;;;5.70;3.50;;;;;;;-0.42;42.02;101111.48;1762856;79;21181;-77
2021/03/10 09:58:11;;;;;;;6.78;3.17;;;;;;;-0.43;42.71;101108.37;1767296;79;21158;-77
2021/03/10 10:01:18;;;;;;;4.12;3.27;;;;;;;-0.34;41.90;101109.20;1767097;79;21335;-78
2021/03/10 10:04:24;;;;;;;5.20;3.58;;;;;;;-0.17;41.33;101100.66;1764834;79;21818;-78
2021/03/10 10:07:31;;;;;;;3.85;2.50;;;;;;;0.03;41.34;101106.22;1745345;79;21239;-80
2021/03/10 10:10:38;;;;;;;4.58;2.90;;;;;;;0.16;40.72;101108.10;1762970;79;21283;-80
2021/03/10 10:13:43;;;;;;;4.33;2.62;;;;;;;0.20;40.69;101107.45;1759706;79;21221;-80
2021/03/10 10:16:49;;;;;;;5.70;2.80;;;;;;;0.14;40.64;101103.30;1759567;79;21666;-81
2021/03/10 10:19:56;;;;;;;8.70;6.72;;;;;;;0.24;40.45;101101.80;1762558;79;21170;-80
2021/03/10 10:23:03;;;;;;;7.00;3.52;;;;;;;0.33;40.40;101097.70;1760380;79;21295;-81
2021/03/10 10:26:23;;;;;;;6.55;3.62;;;;;;;0.30;40.29;101092.97;1760832;79;21184;-80
2021/03/10 10:29:32;;;;;;;25.60;23.07;;;;;;;0.24;41.15;101095.55;1761777;79;21835;-80
2021/03/10 10:32:38;;;;;;;9.93;3.85;;;;;;;0.14;40.90;101088.51;1762264;79;21304;-81
2021/03/10 10:35:44;;;;;;;8.98;4.85;;;;;;;0.10;40.82;101083.40;1762824;79;21363;-80
2021/03/10 10:38:50;;;;;;;5.03;3.17;;;;;;;0.19;40.61;101083.72;1719867;81;21299;-80
2021/03/10 10:41:55;;;;;;;5.42;3.75;;;;;;;0.36;41.95;101085.86;1762218;79;21755;-79
2021/03/10 10:45:01;;;;;;;4.60;3.10;;;;;;;0.28;43.20;101083.63;1764792;79;21342;-82
2021/03/10 10:48:07;;;;;;;5.75;3.20;;;;;;;0.08;41.97;101078.56;1766203;79;21174;-81
2021/03/10 10:51:21;;;;;;;6.35;3.10;;;;;;;-0.09;41.79;101072.38;1764892;79;21810;-82
2021/03/10 10:54:32;;;;;;;7.08;3.27;;;;;;;-0.06;41.48;101065.93;1763472;79;21964;-81
2021/03/10 10:57:37;;;;;;;6.47;2.92;;;;;;;-0.02;41.63;101072.87;1722372;81;21259;-81
2021/03/10 11:00:43;;;;;;;6.00;3.27;;;;;;;-0.05;41.96;101073.03;1765446;79;21280;-82
2021/03/10 11:03:51;;;;;;;5.25;3.20;;;;;;;-0.08;41.36;101067.86;1771147;79;21165;-80
2021/03/10 11:06:59;;;;;;;5.80;3.15;;;;;;;-0.16;42.18;101070.12;1759526;79;21176;-80
2021/03/10 11:10:05;;;;;;;5.58;3.10;;;;;;;-0.17;41.58;101058.98;1763477;79;21306;-80
2021/03/10 11:13:14;;;;;;;5.28;3.08;;;;;;;-0.11;41.69;101059.95;1760752;79;21276;-77
2021/03/10 11:16:29;;;;;;;6.72;3.80;;;;;;;0.00;42.99;101060.21;1762181;79;21264;-77
2021/03/10 11:19:38;;;;;;;20.95;17.57;;;;;;;0.01;42.41;101056.56;1763026;79;21220;-77
2021/03/10 11:22:46;;;;;;;6.00;3.52;;;;;;;-0.13;40.89;101050.64;1770578;79;21587;-77
2021/03/10 11:25:58;;;;;;;16.97;13.55;;;;;;;-0.22;41.86;101046.28;1767548;79;21157;-80
2021/03/10 11:29:04;;;;;;;7.72;4.28;;;;;;;-0.17;41.50;101037.47;1768830;79;21190;-81
2021/03/10 11:32:12;;;;;;;7.10;4.42;;;;;;;-0.13;42.86;101040.37;1770764;79;21279;-80
2021/03/10 11:35:23;;;;;;;5.15;3.70;;;;;;;-0.07;40.68;101025.20;1751201;80;21162;-76
2021/03/10 11:38:34;;;;;;;12.40;8.45;;;;;;;-0.07;40.68;101025.20;1773770;79;21949;-79
2021/03/10 11:41:42;;;;;;;5.47;3.35;;;;;;;-0.04;40.96;101029.94;1772610;79;21467;-78
2021/03/10 11:44:49;;;;;;;25.20;10.00;;;;;;;-0.03;40.66;101028.97;1770443;79;21270;-78
2021/03/10 11:47:55;;;;;;;5.67;3.50;;;;;;;0.02;41.93;101028.70;1773017;79;21347;-78
2021/03/10 11:51:05;;;;;;;4.45;2.87;;;;;;;0.09;42.20;101016.59;1771986;79;21633;-78
2021/03/10 11:54:09;;;;;;;6.05;3.40;;;;;;;0.25;42.14;101017.91;1773370;79;21296;-77
2021/03/10 11:57:16;;;;;;;6.25;3.27;;;;;;;0.26;41.15;101016.94;1774516;79;21629;-77
2021/03/10 12:00:22;;;;;;;4.35;3.10;;;;;;;0.12;41.86;101007.00;1772126;79;21347;-80
2021/03/10 12:03:33;;;;;;;7.05;3.22;;;;;;;0.07;41.38;101008.25;1769462;79;21538;-79
2021/03/10 12:06:56;;;;;;;4.15;2.80;;;;;;;0.07;41.35;100998.34;1770835;79;21209;-77
2021/03/10 12:10:08;;;;;;;60.28;53.70;;;;;;;0.07;41.03;101002.38;1767879;79;21449;-77
2021/03/10 12:13:13;;;;;;;8.75;7.12;;;;;;;-0.04;40.27;100992.77;1767838;79;21184;-78
2021/03/10 12:16:17;;;;;;;5.78;4.90;;;;;;;-0.14;41.57;100994.24;1768964;79;22247;-78
2021/03/10 12:19:27;;;;;;;12.90;6.65;;;;;;;-0.17;40.93;100987.24;1767164;79;21169;-76
2021/03/10 12:22:33;;;;;;;14.05;3.87;;;;;;;-0.20;41.03;100991.92;1764284;79;21219;-78
2021/03/10 12:25:39;;;;;;;7.42;2.87;;;;;;;-0.21;42.83;100991.06;1773493;79;21287;-77
2021/03/10 12:28:47;;;;;;;4.45;2.45;;;;;;;-0.23;43.74;100988.09;1771769;79;21716;-77
2021/03/10 12:35:10;;;;;;;5.47;3.62;;;;;;;-0.22;44.00;100989.34;1769523;79;21228;-77
2021/03/10 12:38:17;;;;;;;3.83;2.65;;;;;;;-0.28;41.45;100990.58;1769643;79;21176;-77
2021/03/10 12:41:25;;;;;;;5.85;3.15;;;;;;;-0.34;42.36;100982.84;1746575;79;21213;-82
2021/03/10 12:44:27;;;;;;;4.90;2.83;;;;;;;-0.29;43.47;100982.58;1771840;79;21969;-77
2021/03/10 12:47:32;;;;;;;;;;;;;;;-0.32;42.60;100980.09;1773790;79;21707;-76
2021/03/10 12:50:38;;;;;;;5.65;3.05;;;;;;;-0.33;42.96;100974.30;1767488;79;20226;-77
2021/03/10 12:53:44;;;;;;;6.28;2.60;;;;;;;-0.34;42.61;100974.78;1772070;79;21311;-77
2021/03/10 12:56:51;;;;;;;4.10;2.83;;;;;;;-0.36;43.25;100971.33;1774490;79;21545;-77
2021/03/10 12:59:57;;;;;;;5.87;3.35;;;;;;;-0.31;44.03;100972.41;1772048;79;21177;-77
2021/03/10 13:03:02;;;;;;;6.05;3.27;;;;;;;-0.27;44.35;100973.96;1769738;79;21788;-77
2021/03/10 13:06:07;;;;;;;4.30;2.90;;;;;;;-0.37;43.81;100975.47;1773900;79;21208;-77
2021/03/10 13:09:13;;;;;;;5.95;3.10;;;;;;;-0.47;44.18;100980.52;1772628;79;21353;-77
2021/03/10 13:12:21;;;;;;;13.78;3.20;;;;;;;-0.48;44.77;100977.90;1771097;79;21184;-76
2021/03/10 13:15:28;;;;;;;6.17;2.83;;;;;;;-0.50;45.50;100969.94;1730179;81;21791;-76
2021/03/10 13:18:34;;;;;;;8.03;3.30;;;;;;;-0.46;45.95;100971.49;1708883;82;21257;-76
2021/03/10 13:21:40;;;;;;;7.25;2.70;;;;;;;-0.46;44.82;100974.18;1708517;82;21224;-76
2021/03/10 13:24:47;;;;;;;5.42;3.15;;;;;;;-0.46;43.91;100962.09;1753691;79;21633;-79
2021/03/10 13:27:54;;;;;;;5.42;2.42;;;;;;;-0.45;44.07;100973.70;1761707;79;21748;-78
2021/03/10 13:30:59;;;;;;;4.92;3.10;;;;;;;-0.47;43.11;100963.50;1758070;79;21295;-76
2021/03/10 13:34:07;;;;;;;7.55;2.95;;;;;;;-0.49;43.27;100964.94;1763470;79;21276;-79
2021/03/10 13:37:14;;;;;;;4.80;2.83;;;;;;;-0.47;44.00;100973.80;1769413;79;21149;-79
2021/03/10 13:40:22;;;;;;;4.08;2.55;;;;;;;-0.52;43.48;100963.77;1767117;79;21280;-75
2021/03/10 13:43:28;;;;;;;5.10;3.00;;;;;;;-0.57;43.48;100971.23;1761553;79;21284;-76
2021/03/10 13:46:34;;;;;;;5.70;2.98;;;;;;;-0.62;43.92;100964.78;1762702;79;21283;-76
2021/03/10 13:49:41;;;;;;;4.37;2.72;;;;;;;-0.62;43.71;100954.52;1766507;79;21358;-79
2021/03/10 13:52:47;;;;;;;9.73;2.62;;;;;;;-0.60;42.70;100949.94;1763311;81;21288;-76
2021/03/10 13:55:53;;;;;;;5.55;3.00;;;;;;;-0.67;42.67;100952.09;1768952;79;21287;-75
2021/03/10 13:58:59;;;;;;;5.28;2.62;;;;;;;-0.71;42.48;100955.91;1762167;79;21216;-76
2021/03/10 14:02:06;;;;;;;4.85;2.62;;;;;;;-0.73;42.99;100950.25;1766169;79;21358;-79
2021/03/10 14:05:12;;;;;;;4.47;2.62;;;;;;;-0.73;44.28;100952.94;1764872;81;21221;-79
2021/03/10 14:08:18;;;;;;;9.20;3.10;;;;;;;-0.73;44.79;100952.94;1767039;79;21285;-80
2021/03/10 14:11:24;;;;;;;4.12;2.55;;;;;;;-0.71;43.32;100951.02;1767131;79;21841;-80
2021/03/10 14:14:30;;;;;;;5.67;2.80;;;;;;;-0.73;43.11;100946.22;1772583;79;21327;-76
2021/03/10 14:17:36;;;;;;;5.60;2.70;;;;;;;-0.80;42.35;100943.90;1768162;79;21619;-75
2021/03/10 14:20:43;;;;;;;3.60;2.40;;;;;;;-0.88;42.00;100938.58;1767037;79;21497;-75
2021/03/10 14:23:49;;;;;;;5.95;3.10;;;;;;;-0.96;42.25;100930.94;1770565;80;22157;-75
2021/03/10 14:26:55;;;;;;;4.33;2.60;;;;;;;-0.96;41.93;100931.42;1725950;81;21301;-76
2021/03/10 14:30:01;;;;;;;5.15;3.08;;;;;;;-1.00;42.49;100926.70;1723957;82;21362;-76
2021/03/10 14:33:06;;;;;;;8.08;2.50;;;;;;;-1.02;44.36;100925.94;1722506;81;21371;-76
2021/03/10 14:36:13;;;;;;;5.75;2.83;;;;;;;-1.00;44.13;100929.86;1725066;82;21182;-76